sensor_id;sensor_type;location;lat;lon;timestamp;P1;durP1;ratioP1;P2;durP2;ratioP2
40314;SDS011;26021;45.640;11.302;2022-08-27T00:00:04;10.88;;;9.25;;
40314;SDS011;26021;45.640;11.302;2022-08-27T00:02:34;11.73;;;8.43;;
40314;SDS011;26021;45.640;11.302;2022-08-27T00:05:00;12.73;;;8.75;;
40314;SDS011;26021;45.640;11.302;2022-08-27T00:07:29;9.60;;;8.60;;
40314;SDS011;26021;45.640;11.302;2022-08-27T00:09:55;9.77;;;8.77;;
40314;SDS011;26021;45.640;11.302;2022-08-27T00:12:21;11.27;;;9.60;;
40314;SDS011;26021;45.640;11.302;2022-08-27T00:14:46;12.13;;;9.68;;
40314;SDS011;26021;45.640;11.302;2022-08-27T00:17:12;10.55;;;8.30;;
40314;SDS011;26021;45.640;11.302;2022-08-27T00:19:38;12.07;;;8.95;;
40314;SDS011;26021;45.640;11.302;2022-08-27T00:22:05;9.70;;;8.70;;
40314;SDS011;26021;45.640;11.302;2022-08-27T00:24:32;11.50;;;8.57;;
40314;SDS011;26021;45.640;11.302;2022-08-27T00:26:58;10.13;;;8.25;;
40314;SDS011;26021;45.640;11.302;2022-08-27T00:29:24;11.35;;;8.95;;
40314;SDS011;26021;45.640;11.302;2022-08-27T00:31:52;10.98;;;8.88;;
40314;SDS011;26021;45.640;11.302;2022-08-27T00:34:19;12.18;;;9.50;;
40314;SDS011;26021;45.640;11.302;2022-08-27T00:36:45;11.48;;;9.27;;
40314;SDS011;26021;45.640;11.302;2022-08-27T00:39:10;9.43;;;8.40;;
40314;SDS011;26021;45.640;11.302;2022-08-27T00:41:37;12.05;;;9.45;;
40314;SDS011;26021;45.640;11.302;2022-08-27T00:44:03;12.38;;;9.25;;
40314;SDS011;26021;45.640;11.302;2022-08-27T00:46:49;9.80;;;8.88;;
40314;SDS011;26021;45.640;11.302;2022-08-27T00:49:19;10.65;;;9.40;;
40314;SDS011;26021;45.640;11.302;2022-08-27T00:52:03;13.73;;;9.25;;
40314;SDS011;26021;45.640;11.302;2022-08-27T00:54:49;9.80;;;8.80;;
40314;SDS011;26021;45.640;11.302;2022-08-27T00:57:22;9.88;;;8.93;;
40314;SDS011;26021;45.640;11.302;2022-08-27T00:59:48;9.80;;;8.63;;
40314;SDS011;26021;45.640;11.302;2022-08-27T01:02:14;9.82;;;8.80;;
40314;SDS011;26021;45.640;11.302;2022-08-27T01:04:51;10.95;;;9.50;;
40314;SDS011;26021;45.640;11.302;2022-08-27T01:07:27;10.98;;;8.88;;
40314;SDS011;26021;45.640;11.302;2022-08-27T01:09:56;9.80;;;8.85;;
40314;SDS011;26021;45.640;11.302;2022-08-27T01:12:26;12.55;;;8.93;;
40314;SDS011;26021;45.640;11.302;2022-08-27T01:14:55;10.27;;;8.30;;
40314;SDS011;26021;45.640;11.302;2022-08-27T01:17:21;12.25;;;9.10;;
40314;SDS011;26021;45.640;11.302;2022-08-27T01:19:51;9.40;;;8.50;;
40314;SDS011;26021;45.640;11.302;2022-08-27T01:24:57;10.77;;;8.82;;
40314;SDS011;26021;45.640;11.302;2022-08-27T01:27:27;14.07;;;8.68;;
40314;SDS011;26021;45.640;11.302;2022-08-27T01:29:58;9.52;;;8.48;;
40314;SDS011;26021;45.640;11.302;2022-08-27T01:32:28;9.48;;;8.43;;
40314;SDS011;26021;45.640;11.302;2022-08-27T01:34:57;13.13;;;9.05;;
40314;SDS011;26021;45.640;11.302;2022-08-27T01:37:24;10.48;;;9.05;;
40314;SDS011;26021;45.640;11.302;2022-08-27T01:39:52;11.77;;;8.45;;
40314;SDS011;26021;45.640;11.302;2022-08-27T01:47:16;12.02;;;9.35;;
40314;SDS011;26021;45.640;11.302;2022-08-27T01:49:44;15.82;;;9.50;;
40314;SDS011;26021;45.640;11.302;2022-08-27T01:52:10;9.68;;;8.50;;
40314;SDS011;26021;45.640;11.302;2022-08-27T01:54:36;14.27;;;8.90;;
40314;SDS011;26021;45.640;11.302;2022-08-27T01:57:01;10.63;;;8.65;;
40314;SDS011;26021;45.640;11.302;2022-08-27T01:59:27;9.15;;;8.25;;
40314;SDS011;26021;45.640;11.302;2022-08-27T02:01:53;9.63;;;8.18;;
40314;SDS011;26021;45.640;11.302;2022-08-27T02:04:27;11.90;;;9.23;;
40314;SDS011;26021;45.640;11.302;2022-08-27T02:06:58;10.48;;;8.50;;
40314;SDS011;26021;45.640;11.302;2022-08-27T02:09:24;10.27;;;8.63;;
40314;SDS011;26021;45.640;11.302;2022-08-27T02:11:50;10.32;;;8.05;;
40314;SDS011;26021;45.640;11.302;2022-08-27T02:14:16;9.75;;;8.18;;
40314;SDS011;26021;45.640;11.302;2022-08-27T02:16:42;11.23;;;8.80;;
40314;SDS011;26021;45.640;11.302;2022-08-27T02:19:08;13.27;;;9.05;;
40314;SDS011;26021;45.640;11.302;2022-08-27T02:21:34;8.95;;;8.05;;
40314;SDS011;26021;45.640;11.302;2022-08-27T02:24:00;13.50;;;8.60;;
40314;SDS011;26021;45.640;11.302;2022-08-27T02:26:25;11.10;;;9.07;;
40314;SDS011;26021;45.640;11.302;2022-08-27T02:28:52;10.30;;;9.15;;
40314;SDS011;26021;45.640;11.302;2022-08-27T02:31:18;9.98;;;8.40;;
40314;SDS011;26021;45.640;11.302;2022-08-27T02:33:44;10.38;;;8.35;;
40314;SDS011;26021;45.640;11.302;2022-08-27T02:36:10;12.80;;;8.48;;
40314;SDS011;26021;45.640;11.302;2022-08-27T02:38:35;11.00;;;8.45;;
40314;SDS011;26021;45.640;11.302;2022-08-27T02:41:01;9.68;;;8.43;;
40314;SDS011;26021;45.640;11.302;2022-08-27T02:43:27;8.63;;;7.82;;
40314;SDS011;26021;45.640;11.302;2022-08-27T02:45:52;10.00;;;8.20;;
40314;SDS011;26021;45.640;11.302;2022-08-27T02:48:18;11.48;;;8.02;;
40314;SDS011;26021;45.640;11.302;2022-08-27T02:50:44;10.02;;;8.23;;
40314;SDS011;26021;45.640;11.302;2022-08-27T02:53:10;12.38;;;8.60;;
40314;SDS011;26021;45.640;11.302;2022-08-27T02:55:36;10.02;;;7.75;;
40314;SDS011;26021;45.640;11.302;2022-08-27T02:58:02;9.48;;;8.45;;
40314;SDS011;26021;45.640;11.302;2022-08-27T03:00:27;11.95;;;8.55;;
40314;SDS011;26021;45.640;11.302;2022-08-27T03:02:53;13.05;;;8.45;;
40314;SDS011;26021;45.640;11.302;2022-08-27T03:05:20;10.60;;;8.13;;
40314;SDS011;26021;45.640;11.302;2022-08-27T03:07:46;12.20;;;8.30;;
40314;SDS011;26021;45.640;11.302;2022-08-27T03:10:13;12.15;;;8.85;;
40314;SDS011;26021;45.640;11.302;2022-08-27T03:12:40;11.13;;;8.23;;
40314;SDS011;26021;45.640;11.302;2022-08-27T03:15:07;10.65;;;8.50;;
40314;SDS011;26021;45.640;11.302;2022-08-27T03:17:35;13.77;;;8.13;;
40314;SDS011;26021;45.640;11.302;2022-08-27T03:20:20;10.93;;;8.40;;
40314;SDS011;26021;45.640;11.302;2022-08-27T03:22:46;10.20;;;8.13;;
40314;SDS011;26021;45.640;11.302;2022-08-27T03:25:12;10.95;;;8.27;;
40314;SDS011;26021;45.640;11.302;2022-08-27T03:27:38;9.63;;;8.73;;
40314;SDS011;26021;45.640;11.302;2022-08-27T03:30:04;11.25;;;8.88;;
40314;SDS011;26021;45.640;11.302;2022-08-27T03:32:31;10.73;;;8.85;;
40314;SDS011;26021;45.640;11.302;2022-08-27T03:34:57;11.88;;;9.07;;
40314;SDS011;26021;45.640;11.302;2022-08-27T03:37:23;9.85;;;8.75;;
40314;SDS011;26021;45.640;11.302;2022-08-27T03:39:49;11.20;;;8.10;;
40314;SDS011;26021;45.640;11.302;2022-08-27T03:42:14;11.25;;;8.30;;
40314;SDS011;26021;45.640;11.302;2022-08-27T03:44:40;9.40;;;8.07;;
40314;SDS011;26021;45.640;11.302;2022-08-27T03:47:05;10.63;;;8.38;;
40314;SDS011;26021;45.640;11.302;2022-08-27T03:49:31;11.63;;;8.82;;
40314;SDS011;26021;45.640;11.302;2022-08-27T03:51:56;12.32;;;9.00;;
40314;SDS011;26021;45.640;11.302;2022-08-27T03:54:22;10.65;;;9.23;;
40314;SDS011;26021;45.640;11.302;2022-08-27T03:56:49;10.43;;;8.80;;
40314;SDS011;26021;45.640;11.302;2022-08-27T03:59:15;11.63;;;8.52;;
40314;SDS011;26021;45.640;11.302;2022-08-27T04:01:41;9.43;;;8.57;;
40314;SDS011;26021;45.640;11.302;2022-08-27T04:04:07;10.57;;;9.48;;
40314;SDS011;26021;45.640;11.302;2022-08-27T04:06:33;10.98;;;9.13;;
40314;SDS011;26021;45.640;11.302;2022-08-27T04:08:59;12.60;;;9.25;;
40314;SDS011;26021;45.640;11.302;2022-08-27T04:11:25;9.90;;;9.00;;
40314;SDS011;26021;45.640;11.302;2022-08-27T04:13:53;11.93;;;8.90;;
40314;SDS011;26021;45.640;11.302;2022-08-27T04:16:19;11.52;;;9.88;;
40314;SDS011;26021;45.640;11.302;2022-08-27T04:18:44;13.93;;;9.77;;
40314;SDS011;26021;45.640;11.302;2022-08-27T04:21:10;12.15;;;10.13;;
40314;SDS011;26021;45.640;11.302;2022-08-27T04:23:38;10.75;;;8.88;;
40314;SDS011;26021;45.640;11.302;2022-08-27T04:26:04;11.82;;;9.35;;
40314;SDS011;26021;45.640;11.302;2022-08-27T04:28:31;11.23;;;9.60;;
40314;SDS011;26021;45.640;11.302;2022-08-27T04:30:57;10.00;;;9.00;;
40314;SDS011;26021;45.640;11.302;2022-08-27T04:33:22;11.27;;;9.18;;
40314;SDS011;26021;45.640;11.302;2022-08-27T04:35:55;12.40;;;10.15;;
40314;SDS011;26021;45.640;11.302;2022-08-27T04:38:25;13.75;;;10.57;;
40314;SDS011;26021;45.640;11.302;2022-08-27T04:40:50;11.40;;;9.52;;
40314;SDS011;26021;45.640;11.302;2022-08-27T04:43:34;11.27;;;10.27;;
40314;SDS011;26021;45.640;11.302;2022-08-27T04:46:00;11.80;;;10.25;;
40314;SDS011;26021;45.640;11.302;2022-08-27T04:48:25;10.38;;;9.32;;
40314;SDS011;26021;45.640;11.302;2022-08-27T04:50:51;13.48;;;10.63;;
40314;SDS011;26021;45.640;11.302;2022-08-27T04:53:16;12.25;;;9.70;;
40314;SDS011;26021;45.640;11.302;2022-08-27T04:55:43;12.13;;;9.32;;
40314;SDS011;26021;45.640;11.302;2022-08-27T04:58:10;11.77;;;9.75;;
40314;SDS011;26021;45.640;11.302;2022-08-27T05:00:40;11.93;;;10.15;;
40314;SDS011;26021;45.640;11.302;2022-08-27T05:03:06;9.52;;;8.65;;
40314;SDS011;26021;45.640;11.302;2022-08-27T05:05:32;11.43;;;10.00;;
40314;SDS011;26021;45.640;11.302;2022-08-27T05:07:57;11.32;;;9.68;;
40314;SDS011;26021;45.640;11.302;2022-08-27T05:10:23;12.70;;;9.70;;
40314;SDS011;26021;45.640;11.302;2022-08-27T05:12:48;11.30;;;9.73;;
40314;SDS011;26021;45.640;11.302;2022-08-27T05:15:14;11.32;;;9.43;;
40314;SDS011;26021;45.640;11.302;2022-08-27T05:17:39;13.23;;;10.20;;
40314;SDS011;26021;45.640;11.302;2022-08-27T05:20:05;10.90;;;9.38;;
40314;SDS011;26021;45.640;11.302;2022-08-27T05:22:31;11.82;;;10.52;;
40314;SDS011;26021;45.640;11.302;2022-08-27T05:24:56;11.40;;;9.23;;
40314;SDS011;26021;45.640;11.302;2022-08-27T05:27:22;11.40;;;10.13;;
40314;SDS011;26021;45.640;11.302;2022-08-27T05:29:47;11.75;;;10.43;;
40314;SDS011;26021;45.640;11.302;2022-08-27T05:32:13;12.52;;;10.32;;
40314;SDS011;26021;45.640;11.302;2022-08-27T05:34:38;11.35;;;10.00;;
40314;SDS011;26021;45.640;11.302;2022-08-27T05:37:03;10.05;;;9.02;;
40314;SDS011;26021;45.640;11.302;2022-08-27T05:39:29;11.65;;;10.43;;
40314;SDS011;26021;45.640;11.302;2022-08-27T05:41:57;10.77;;;9.68;;
40314;SDS011;26021;45.640;11.302;2022-08-27T05:44:23;11.20;;;9.98;;
40314;SDS011;26021;45.640;11.302;2022-08-27T05:46:48;12.93;;;10.15;;
40314;SDS011;26021;45.640;11.302;2022-08-27T05:49:14;13.60;;;10.52;;
40314;SDS011;26021;45.640;11.302;2022-08-27T05:51:40;11.57;;;10.35;;
40314;SDS011;26021;45.640;11.302;2022-08-27T05:54:09;13.10;;;9.82;;
40314;SDS011;26021;45.640;11.302;2022-08-27T05:56:43;10.90;;;9.70;;
40314;SDS011;26021;45.640;11.302;2022-08-27T05:59:10;16.02;;;11.48;;
40314;SDS011;26021;45.640;11.302;2022-08-27T06:04:20;11.25;;;10.10;;
40314;SDS011;26021;45.640;11.302;2022-08-27T06:06:48;12.02;;;10.82;;
40314;SDS011;26021;45.640;11.302;2022-08-27T06:09:16;15.50;;;10.40;;
40314;SDS011;26021;45.640;11.302;2022-08-27T06:11:43;12.82;;;10.35;;
40314;SDS011;26021;45.640;11.302;2022-08-27T06:14:10;13.02;;;10.48;;
40314;SDS011;26021;45.640;11.302;2022-08-27T06:16:37;13.95;;;11.93;;
40314;SDS011;26021;45.640;11.302;2022-08-27T06:19:03;12.10;;;10.80;;
40314;SDS011;26021;45.640;11.302;2022-08-27T06:21:30;17.02;;;11.60;;
40314;SDS011;26021;45.640;11.302;2022-08-27T06:23:55;14.20;;;11.02;;
40314;SDS011;26021;45.640;11.302;2022-08-27T06:26:22;12.13;;;10.35;;
40314;SDS011;26021;45.640;11.302;2022-08-27T06:28:49;12.45;;;10.75;;
40314;SDS011;26021;45.640;11.302;2022-08-27T06:31:19;14.25;;;12.35;;
40314;SDS011;26021;45.640;11.302;2022-08-27T06:33:50;14.40;;;10.98;;
40314;SDS011;26021;45.640;11.302;2022-08-27T06:36:18;14.43;;;11.48;;
40314;SDS011;26021;45.640;11.302;2022-08-27T06:38:46;13.48;;;11.43;;
40314;SDS011;26021;45.640;11.302;2022-08-27T06:41:12;14.95;;;12.02;;
40314;SDS011;26021;45.640;11.302;2022-08-27T06:43:40;15.80;;;11.68;;
40314;SDS011;26021;45.640;11.302;2022-08-27T06:46:08;12.13;;;10.85;;
40314;SDS011;26021;45.640;11.302;2022-08-27T06:48:36;15.15;;;11.38;;
40314;SDS011;26021;45.640;11.302;2022-08-27T06:53:56;13.55;;;11.02;;
40314;SDS011;26021;45.640;11.302;2022-08-27T06:56:25;12.88;;;11.18;;
40314;SDS011;26021;45.640;11.302;2022-08-27T06:58:53;14.95;;;12.00;;
40314;SDS011;26021;45.640;11.302;2022-08-27T07:01:32;15.52;;;11.95;;
40314;SDS011;26021;45.640;11.302;2022-08-27T07:04:01;21.08;;;13.50;;
40314;SDS011;26021;45.640;11.302;2022-08-27T07:06:30;21.77;;;14.40;;
40314;SDS011;26021;45.640;11.302;2022-08-27T07:08:57;18.67;;;13.27;;
40314;SDS011;26021;45.640;11.302;2022-08-27T07:11:24;18.60;;;13.80;;
40314;SDS011;26021;45.640;11.302;2022-08-27T07:13:50;17.67;;;14.23;;
40314;SDS011;26021;45.640;11.302;2022-08-27T07:16:20;16.10;;;13.63;;
40314;SDS011;26021;45.640;11.302;2022-08-27T07:18:48;19.40;;;15.95;;
40314;SDS011;26021;45.640;11.302;2022-08-27T07:21:15;16.00;;;13.68;;
40314;SDS011;26021;45.640;11.302;2022-08-27T07:23:42;21.10;;;13.70;;
40314;SDS011;26021;45.640;11.302;2022-08-27T07:26:10;21.25;;;14.25;;
40314;SDS011;26021;45.640;11.302;2022-08-27T07:28:38;19.85;;;14.45;;
40314;SDS011;26021;45.640;11.302;2022-08-27T07:31:05;18.48;;;13.77;;
40314;SDS011;26021;45.640;11.302;2022-08-27T07:33:37;14.20;;;12.73;;
40314;SDS011;26021;45.640;11.302;2022-08-27T07:36:04;18.38;;;13.02;;
40314;SDS011;26021;45.640;11.302;2022-08-27T07:38:30;18.55;;;13.00;;
40314;SDS011;26021;45.640;11.302;2022-08-27T07:40:56;15.77;;;12.88;;
40314;SDS011;26021;45.640;11.302;2022-08-27T07:43:21;13.43;;;11.25;;
40314;SDS011;26021;45.640;11.302;2022-08-27T07:46:06;16.17;;;12.17;;
40314;SDS011;26021;45.640;11.302;2022-08-27T07:48:33;15.18;;;11.32;;
40314;SDS011;26021;45.640;11.302;2022-08-27T07:51:02;15.95;;;12.30;;
40314;SDS011;26021;45.640;11.302;2022-08-27T07:53:31;13.90;;;11.98;;
40314;SDS011;26021;45.640;11.302;2022-08-27T07:56:03;14.38;;;12.57;;
40314;SDS011;26021;45.640;11.302;2022-08-27T07:58:30;19.88;;;13.38;;
40314;SDS011;26021;45.640;11.302;2022-08-27T08:00:56;17.70;;;13.85;;
40314;SDS011;26021;45.640;11.302;2022-08-27T08:03:22;16.60;;;13.52;;
40314;SDS011;26021;45.640;11.302;2022-08-27T08:05:47;18.67;;;13.68;;
40314;SDS011;26021;45.640;11.302;2022-08-27T08:08:14;16.13;;;13.75;;
40314;SDS011;26021;45.640;11.302;2022-08-27T08:10:40;16.00;;;13.48;;
40314;SDS011;26021;45.640;11.302;2022-08-27T08:13:07;16.38;;;13.70;;
40314;SDS011;26021;45.640;11.302;2022-08-27T08:15:33;16.73;;;12.63;;
40314;SDS011;26021;45.640;11.302;2022-08-27T08:18:00;14.15;;;12.70;;
40314;SDS011;26021;45.640;11.302;2022-08-27T08:20:26;15.77;;;13.25;;
40314;SDS011;26021;45.640;11.302;2022-08-27T08:22:51;14.63;;;12.57;;
40314;SDS011;26021;45.640;11.302;2022-08-27T08:25:17;14.30;;;12.57;;
40314;SDS011;26021;45.640;11.302;2022-08-27T08:27:44;16.80;;;12.73;;
40314;SDS011;26021;45.640;11.302;2022-08-27T08:30:13;14.13;;;11.95;;
40314;SDS011;26021;45.640;11.302;2022-08-27T08:32:39;13.05;;;11.18;;
40314;SDS011;26021;45.640;11.302;2022-08-27T08:35:05;13.90;;;11.60;;
40314;SDS011;26021;45.640;11.302;2022-08-27T08:37:31;13.60;;;12.02;;
40314;SDS011;26021;45.640;11.302;2022-08-27T08:39:56;16.80;;;11.82;;
40314;SDS011;26021;45.640;11.302;2022-08-27T08:42:30;15.63;;;12.55;;
40314;SDS011;26021;45.640;11.302;2022-08-27T08:45:01;15.55;;;12.93;;
40314;SDS011;26021;45.640;11.302;2022-08-27T08:47:30;15.82;;;13.95;;
40314;SDS011;26021;45.640;11.302;2022-08-27T08:52:44;15.13;;;12.65;;
40314;SDS011;26021;45.640;11.302;2022-08-27T08:57:52;13.10;;;11.30;;
40314;SDS011;26021;45.640;11.302;2022-08-27T09:00:20;13.93;;;10.57;;
40314;SDS011;26021;45.640;11.302;2022-08-27T09:02:51;12.07;;;9.88;;
40314;SDS011;26021;45.640;11.302;2022-08-27T09:05:19;11.88;;;9.65;;
40314;SDS011;26021;45.640;11.302;2022-08-27T09:12:40;10.88;;;9.70;;
40314;SDS011;26021;45.640;11.302;2022-08-27T09:15:13;12.25;;;9.55;;
40314;SDS011;26021;45.640;11.302;2022-08-27T09:17:41;12.43;;;9.60;;
40314;SDS011;26021;45.640;11.302;2022-08-27T09:20:09;10.13;;;9.13;;
40314;SDS011;26021;45.640;11.302;2022-08-27T09:23:04;11.23;;;8.80;;
40314;SDS011;26021;45.640;11.302;2022-08-27T09:25:39;13.95;;;10.05;;
40314;SDS011;26021;45.640;11.302;2022-08-27T09:28:08;10.43;;;8.65;;
40314;SDS011;26021;45.640;11.302;2022-08-27T09:31:07;10.93;;;9.82;;
40314;SDS011;26021;45.640;11.302;2022-08-27T09:33:37;16.00;;;10.30;;
40314;SDS011;26021;45.640;11.302;2022-08-27T09:36:03;13.95;;;11.25;;
40314;SDS011;26021;45.640;11.302;2022-08-27T09:38:32;17.65;;;11.73;;
40314;SDS011;26021;45.640;11.302;2022-08-27T09:41:00;15.38;;;11.77;;
40314;SDS011;26021;45.640;11.302;2022-08-27T09:43:30;20.75;;;13.20;;
40314;SDS011;26021;45.640;11.302;2022-08-27T09:45:59;17.90;;;12.90;;
40314;SDS011;26021;45.640;11.302;2022-08-27T09:48:34;20.17;;;12.88;;
40314;SDS011;26021;45.640;11.302;2022-08-27T09:51:08;19.33;;;13.88;;
40314;SDS011;26021;45.640;11.302;2022-08-27T09:53:46;16.88;;;12.60;;
40314;SDS011;26021;45.640;11.302;2022-08-27T09:56:26;15.35;;;11.85;;
40314;SDS011;26021;45.640;11.302;2022-08-27T09:59:07;15.50;;;11.32;;
40314;SDS011;26021;45.640;11.302;2022-08-27T10:01:51;13.38;;;10.35;;
40314;SDS011;26021;45.640;11.302;2022-08-27T10:04:27;14.48;;;11.35;;
40314;SDS011;26021;45.640;11.302;2022-08-27T10:07:10;14.95;;;11.68;;
40314;SDS011;26021;45.640;11.302;2022-08-27T10:09:42;15.00;;;11.90;;
40314;SDS011;26021;45.640;11.302;2022-08-27T10:15:11;13.10;;;10.05;;
40314;SDS011;26021;45.640;11.302;2022-08-27T10:31:06;14.27;;;9.80;;
40314;SDS011;26021;45.640;11.302;2022-08-27T10:33:36;10.95;;;9.82;;
40314;SDS011;26021;45.640;11.302;2022-08-27T10:41:40;10.40;;;8.45;;
40314;SDS011;26021;45.640;11.302;2022-08-27T10:52:30;14.10;;;9.55;;
40314;SDS011;26021;45.640;11.302;2022-08-27T10:58:34;11.20;;;8.55;;
40314;SDS011;26021;45.640;11.302;2022-08-27T11:03:40;16.27;;;11.07;;
40314;SDS011;26021;45.640;11.302;2022-08-27T11:08:59;15.63;;;10.27;;
40314;SDS011;26021;45.640;11.302;2022-08-27T11:11:33;11.77;;;9.57;;
40314;SDS011;26021;45.640;11.302;2022-08-27T11:14:03;12.15;;;9.85;;
40314;SDS011;26021;45.640;11.302;2022-08-27T11:16:39;16.77;;;11.40;;
40314;SDS011;26021;45.640;11.302;2022-08-27T11:19:24;16.85;;;10.45;;
40314;SDS011;26021;45.640;11.302;2022-08-27T11:24:35;14.57;;;10.48;;
40314;SDS011;26021;45.640;11.302;2022-08-27T11:27:07;14.55;;;10.05;;
40314;SDS011;26021;45.640;11.302;2022-08-27T11:29:35;16.50;;;10.50;;
40314;SDS011;26021;45.640;11.302;2022-08-27T11:33:13;13.52;;;9.93;;
40314;SDS011;26021;45.640;11.302;2022-08-27T11:35:08;13.05;;;7.93;;
40314;SDS011;26021;45.640;11.302;2022-08-27T11:43:19;11.70;;;8.48;;
40314;SDS011;26021;45.640;11.302;2022-08-27T11:45:54;10.05;;;7.60;;
40314;SDS011;26021;45.640;11.302;2022-08-27T11:53:36;11.13;;;8.52;;
40314;SDS011;26021;45.640;11.302;2022-08-27T11:56:11;9.82;;;8.25;;
40314;SDS011;26021;45.640;11.302;2022-08-27T11:58:40;11.80;;;9.43;;
40314;SDS011;26021;45.640;11.302;2022-08-27T12:01:14;21.58;;;11.35;;
40314;SDS011;26021;45.640;11.302;2022-08-27T12:04:37;10.50;;;8.32;;
40314;SDS011;26021;45.640;11.302;2022-08-27T12:06:49;8.40;;;7.38;;
40314;SDS011;26021;45.640;11.302;2022-08-27T12:09:19;10.00;;;7.43;;
40314;SDS011;26021;45.640;11.302;2022-08-27T12:25:37;10.88;;;8.65;;
40314;SDS011;26021;45.640;11.302;2022-08-27T12:28:03;11.00;;;7.85;;
40314;SDS011;26021;45.640;11.302;2022-08-27T12:30:32;9.60;;;7.65;;
40314;SDS011;26021;45.640;11.302;2022-08-27T12:33:49;9.07;;;7.15;;
40314;SDS011;26021;45.640;11.302;2022-08-27T12:35:56;8.68;;;6.85;;
40314;SDS011;26021;45.640;11.302;2022-08-27T12:40:56;8.70;;;6.60;;
40314;SDS011;26021;45.640;11.302;2022-08-27T12:43:28;8.05;;;6.13;;
40314;SDS011;26021;45.640;11.302;2022-08-27T12:46:02;10.25;;;5.70;;
40314;SDS011;26021;45.640;11.302;2022-08-27T12:48:35;5.35;;;4.82;;
40314;SDS011;26021;45.640;11.302;2022-08-27T12:51:23;8.13;;;5.53;;
40314;SDS011;26021;45.640;11.302;2022-08-27T12:59:08;7.60;;;6.25;;
40314;SDS011;26021;45.640;11.302;2022-08-27T13:04:34;5.85;;;5.03;;
40314;SDS011;26021;45.640;11.302;2022-08-27T13:07:03;5.75;;;5.07;;
40314;SDS011;26021;45.640;11.302;2022-08-27T13:09:30;11.80;;;8.40;;
40314;SDS011;26021;45.640;11.302;2022-08-27T13:11:58;8.70;;;6.30;;
40314;SDS011;26021;45.640;11.302;2022-08-27T13:14:27;9.70;;;6.63;;
40314;SDS011;26021;45.640;11.302;2022-08-27T13:17:09;8.30;;;6.15;;
40314;SDS011;26021;45.640;11.302;2022-08-27T13:19:57;8.30;;;5.78;;
40314;SDS011;26021;45.640;11.302;2022-08-27T13:22:37;7.28;;;5.35;;
40314;SDS011;26021;45.640;11.302;2022-08-27T13:25:04;5.20;;;4.70;;
40314;SDS011;26021;45.640;11.302;2022-08-27T13:27:49;6.43;;;4.90;;
40314;SDS011;26021;45.640;11.302;2022-08-27T13:30:20;5.22;;;4.72;;
40314;SDS011;26021;45.640;11.302;2022-08-27T13:32:48;5.55;;;4.95;;
40314;SDS011;26021;45.640;11.302;2022-08-27T13:35:15;6.00;;;4.45;;
40314;SDS011;26021;45.640;11.302;2022-08-27T13:37:46;9.05;;;5.35;;
40314;SDS011;26021;45.640;11.302;2022-08-27T13:40:24;4.65;;;4.25;;
40314;SDS011;26021;45.640;11.302;2022-08-27T13:42:52;4.95;;;3.55;;
40314;SDS011;26021;45.640;11.302;2022-08-27T13:45:19;6.90;;;3.65;;
40314;SDS011;26021;45.640;11.302;2022-08-27T13:47:45;6.22;;;3.75;;
40314;SDS011;26021;45.640;11.302;2022-08-27T13:50:17;6.65;;;4.20;;
40314;SDS011;26021;45.640;11.302;2022-08-27T13:52:46;6.85;;;4.55;;
40314;SDS011;26021;45.640;11.302;2022-08-27T13:55:31;5.70;;;4.30;;
40314;SDS011;26021;45.640;11.302;2022-08-27T13:57:57;4.80;;;4.20;;
40314;SDS011;26021;45.640;11.302;2022-08-27T14:02:56;4.15;;;3.60;;
40314;SDS011;26021;45.640;11.302;2022-08-27T14:07:56;4.00;;;3.65;;
40314;SDS011;26021;45.640;11.302;2022-08-27T14:13:02;6.32;;;3.85;;
40314;SDS011;26021;45.640;11.302;2022-08-27T14:18:26;3.67;;;3.38;;
40314;SDS011;26021;45.640;11.302;2022-08-27T14:20:53;14.32;;;8.35;;
40314;SDS011;26021;45.640;11.302;2022-08-27T14:23:19;5.10;;;3.80;;
40314;SDS011;26021;45.640;11.302;2022-08-27T14:25:46;4.65;;;4.00;;
40314;SDS011;26021;45.640;11.302;2022-08-27T14:28:12;5.30;;;3.33;;
40314;SDS011;26021;45.640;11.302;2022-08-27T14:30:37;5.60;;;3.97;;
40314;SDS011;26021;45.640;11.302;2022-08-27T14:33:04;4.82;;;3.40;;
40314;SDS011;26021;45.640;11.302;2022-08-27T14:35:33;3.47;;;3.17;;
40314;SDS011;26021;45.640;11.302;2022-08-27T14:38:00;3.50;;;3.20;;
40314;SDS011;26021;45.640;11.302;2022-08-27T14:40:43;5.85;;;3.67;;
40314;SDS011;26021;45.640;11.302;2022-08-27T14:43:18;3.70;;;3.40;;
40314;SDS011;26021;45.640;11.302;2022-08-27T14:45:45;3.72;;;3.40;;
40314;SDS011;26021;45.640;11.302;2022-08-27T14:48:12;4.25;;;3.25;;
40314;SDS011;26021;45.640;11.302;2022-08-27T14:50:43;5.40;;;3.13;;
40314;SDS011;26021;45.640;11.302;2022-08-27T14:53:09;4.32;;;3.15;;
40314;SDS011;26021;45.640;11.302;2022-08-27T14:55:35;6.43;;;2.80;;
40314;SDS011;26021;45.640;11.302;2022-08-27T14:58:01;4.80;;;2.95;;
40314;SDS011;26021;45.640;11.302;2022-08-27T15:00:27;3.25;;;2.97;;
40314;SDS011;26021;45.640;11.302;2022-08-27T15:02:54;3.17;;;2.88;;
40314;SDS011;26021;45.640;11.302;2022-08-27T15:05:21;3.35;;;3.05;;
40314;SDS011;26021;45.640;11.302;2022-08-27T15:07:46;3.00;;;2.70;;
40314;SDS011;26021;45.640;11.302;2022-08-27T15:10:12;2.85;;;2.63;;
40314;SDS011;26021;45.640;11.302;2022-08-27T15:12:38;3.05;;;2.65;;
40314;SDS011;26021;45.640;11.302;2022-08-27T15:15:05;3.70;;;3.35;;
40314;SDS011;26021;45.640;11.302;2022-08-27T15:17:32;3.30;;;3.10;;
40314;SDS011;26021;45.640;11.302;2022-08-27T15:19:57;3.35;;;3.05;;
40314;SDS011;26021;45.640;11.302;2022-08-27T15:22:23;3.50;;;3.20;;
40314;SDS011;26021;45.640;11.302;2022-08-27T15:24:56;4.40;;;2.92;;
40314;SDS011;26021;45.640;11.302;2022-08-27T15:27:22;2.95;;;2.50;;
40314;SDS011;26021;45.640;11.302;2022-08-27T15:29:49;5.93;;;3.13;;
40314;SDS011;26021;45.640;11.302;2022-08-27T15:32:28;3.63;;;3.33;;
40314;SDS011;26021;45.640;11.302;2022-08-27T15:34:57;3.45;;;2.75;;
40314;SDS011;26021;45.640;11.302;2022-08-27T15:37:24;6.57;;;3.20;;
40314;SDS011;26021;45.640;11.302;2022-08-27T15:39:50;4.53;;;3.15;;
40314;SDS011;26021;45.640;11.302;2022-08-27T15:42:16;3.35;;;3.05;;
40314;SDS011;26021;45.640;11.302;2022-08-27T15:44:46;3.20;;;3.00;;
40314;SDS011;26021;45.640;11.302;2022-08-27T15:47:14;3.42;;;3.13;;
40314;SDS011;26021;45.640;11.302;2022-08-27T15:49:40;5.78;;;3.42;;
40314;SDS011;26021;45.640;11.302;2022-08-27T15:52:06;3.70;;;3.33;;
40314;SDS011;26021;45.640;11.302;2022-08-27T15:54:34;3.50;;;3.20;;
40314;SDS011;26021;45.640;11.302;2022-08-27T15:56:59;3.72;;;3.10;;
40314;SDS011;26021;45.640;11.302;2022-08-27T15:59:26;3.33;;;3.03;;
40314;SDS011;26021;45.640;11.302;2022-08-27T16:01:52;4.10;;;3.00;;
40314;SDS011;26021;45.640;11.302;2022-08-27T16:04:18;3.70;;;3.40;;
40314;SDS011;26021;45.640;11.302;2022-08-27T16:06:45;3.70;;;3.40;;
40314;SDS011;26021;45.640;11.302;2022-08-27T16:09:13;6.45;;;3.70;;
40314;SDS011;26021;45.640;11.302;2022-08-27T16:11:39;3.75;;;3.28;;
40314;SDS011;26021;45.640;11.302;2022-08-27T16:14:05;3.78;;;3.47;;
40314;SDS011;26021;45.640;11.302;2022-08-27T16:16:31;4.75;;;3.38;;
40314;SDS011;26021;45.640;11.302;2022-08-27T16:18:59;3.85;;;3.55;;
40314;SDS011;26021;45.640;11.302;2022-08-27T16:21:25;7.43;;;3.60;;